createdAt,value
2024-02-19T00:01:47.663Z,0.90
2024-02-19T00:04:39.662Z,1.00
2024-02-19T00:07:27.521Z,0.80
2024-02-19T00:10:15.469Z,1.10
2024-02-19T00:13:03.274Z,1.07
2024-02-19T00:15:52.360Z,0.80
2024-02-19T00:18:41.670Z,0.90
2024-02-19T00:21:29.475Z,0.90
2024-02-19T00:24:17.715Z,0.90
2024-02-19T00:27:05.563Z,1.00
2024-02-19T00:29:53.515Z,1.00
2024-02-19T00:32:42.822Z,0.97
2024-02-19T00:35:32.959Z,1.10
2024-02-19T00:38:20.688Z,1.20
2024-02-19T00:41:08.533Z,1.00
2024-02-19T00:43:56.410Z,0.90
2024-02-19T00:46:44.136Z,1.20
2024-02-19T00:49:32.847Z,1.00
2024-02-19T00:52:23.051Z,0.90
2024-02-19T00:55:11.092Z,1.30
2024-02-19T00:57:59.140Z,1.10
2024-02-19T01:00:47.100Z,0.90
2024-02-19T01:03:36.775Z,0.80
2024-02-19T01:06:24.889Z,0.80
2024-02-19T01:09:15.089Z,0.90
2024-02-19T01:12:02.843Z,0.87
2024-02-19T01:14:50.620Z,0.63
2024-02-19T01:17:38.398Z,0.70
2024-02-19T01:20:26.870Z,0.80
2024-02-19T01:23:17.930Z,0.50
2024-02-19T01:26:07.109Z,0.60
2024-02-19T01:28:56.577Z,0.70
2024-02-19T01:31:44.353Z,0.57
2024-02-19T01:34:32.360Z,0.47
2024-02-19T01:37:21.930Z,0.50
2024-02-19T01:40:12.136Z,0.50
2024-02-19T01:43:04.454Z,0.50
2024-02-19T01:45:54.216Z,0.50
2024-02-19T01:48:42.177Z,0.40
2024-02-19T01:51:31.843Z,0.60
2024-02-19T01:54:20.139Z,0.50
2024-02-19T01:57:08.634Z,0.30
2024-02-19T01:59:57.664Z,0.40
2024-02-19T02:02:45.689Z,0.33
2024-02-19T02:05:34.338Z,0.30
2024-02-19T02:08:22.339Z,0.37
2024-02-19T02:11:11.509Z,0.40
2024-02-19T02:14:01.448Z,0.40
2024-02-19T02:16:50.534Z,0.27
2024-02-19T02:19:42.566Z,0.37
2024-02-19T02:22:30.498Z,0.47
2024-02-19T02:25:18.325Z,0.50
2024-02-19T02:28:08.521Z,0.40
2024-02-19T02:30:56.717Z,0.50
2024-02-19T02:33:45.133Z,0.70
2024-02-19T02:36:33.096Z,0.50
2024-02-19T02:39:20.885Z,0.30
2024-02-19T02:42:08.598Z,0.30
2024-02-19T02:44:57.965Z,0.40
2024-02-19T02:47:45.745Z,0.37
2024-02-19T02:50:34.654Z,0.43
2024-02-19T02:53:23.240Z,0.50
2024-02-19T02:56:19.366Z,0.40
2024-02-19T02:59:07.292Z,0.43
2024-02-19T03:01:57.257Z,0.47
2024-02-19T03:04:45.323Z,0.40
2024-02-19T03:07:33.534Z,0.23
2024-02-19T03:10:21.453Z,0.30
2024-02-19T03:13:09.238Z,0.40
2024-02-19T03:15:58.937Z,0.30
2024-02-19T03:18:48.988Z,0.30
2024-02-19T03:21:37.529Z,0.30
2024-02-19T03:24:25.296Z,0.30
2024-02-19T03:27:15.280Z,0.30
2024-02-19T03:30:03.204Z,0.30
2024-02-19T03:32:50.977Z,0.30
2024-02-19T03:35:40.579Z,0.20
2024-02-19T03:38:29.181Z,0.23
2024-02-19T03:41:16.886Z,0.37
2024-02-19T03:44:04.673Z,0.10
2024-02-19T03:46:52.415Z,0.20
2024-02-19T03:49:40.216Z,0.20
2024-02-19T03:52:30.037Z,0.20
2024-02-19T03:55:18.371Z,0.27
2024-02-19T03:58:06.155Z,0.20
2024-02-19T04:00:53.923Z,0.30
2024-02-19T04:03:41.772Z,0.20
2024-02-19T04:06:30.722Z,0.10
2024-02-19T04:09:19.818Z,0.23
2024-02-19T04:12:08.047Z,0.20
2024-02-19T04:14:56.772Z,0.10
2024-02-19T04:17:45.153Z,0.10
2024-02-19T04:20:33.317Z,0.10
2024-02-19T04:23:21.048Z,0.20
2024-02-19T04:26:10.214Z,0.10
2024-02-19T04:28:57.970Z,0.20
2024-02-19T04:31:45.764Z,0.10
2024-02-19T04:34:36.516Z,0.20
2024-02-19T04:37:26.701Z,0.17
2024-02-19T04:40:15.122Z,0.10
2024-02-19T04:43:05.395Z,0.20
2024-02-19T04:45:53.361Z,0.20
2024-02-19T04:48:41.188Z,0.10
2024-02-19T04:51:30.378Z,0.30
2024-02-19T04:54:20.665Z,0.20
2024-02-19T04:57:08.398Z,0.20
2024-02-19T04:59:57.429Z,0.10
2024-02-19T05:02:45.523Z,0.10
2024-02-19T05:05:33.324Z,0.30
2024-02-19T05:08:22.030Z,0.10
2024-02-19T05:11:10.043Z,0.20
2024-02-19T05:13:58.817Z,0.17
2024-02-19T05:16:48.474Z,0.20
2024-02-19T05:19:36.397Z,0.10
2024-02-19T05:22:25.350Z,0.20
2024-02-19T05:25:13.172Z,0.20
2024-02-19T05:28:00.957Z,0.20
2024-02-19T05:30:48.774Z,0.10
2024-02-19T05:33:38.108Z,0.20
2024-02-19T05:36:26.357Z,0.10
2024-02-19T05:39:14.150Z,0.10
2024-02-19T05:42:02.185Z,0.20
2024-02-19T05:44:50.335Z,0.30
2024-02-19T05:47:38.926Z,0.10
2024-02-19T05:50:30.075Z,0.10
2024-02-19T05:53:17.936Z,0.17
2024-02-19T05:56:06.262Z,0.10
2024-02-19T05:58:54.779Z,0.10
2024-02-19T06:01:42.657Z,0.00
2024-02-19T06:04:30.657Z,0.00
2024-02-19T06:07:19.780Z,0.00
2024-02-19T06:10:08.624Z,0.10
2024-02-19T06:12:56.443Z,0.10
2024-02-19T06:15:44.259Z,0.10
2024-02-19T06:18:32.728Z,0.10
2024-02-19T06:21:20.585Z,0.10
2024-02-19T06:24:09.885Z,0.10
2024-02-19T06:26:57.817Z,0.10
2024-02-19T06:29:46.488Z,0.10
2024-02-19T06:32:34.224Z,0.00
2024-02-19T06:35:22.098Z,0.23
2024-02-19T06:38:09.905Z,0.20
2024-02-19T06:40:59.334Z,0.00
2024-02-19T06:43:48.078Z,0.00
2024-02-19T06:46:36.764Z,0.10
2024-02-19T06:49:27.696Z,0.10
2024-02-19T06:52:15.505Z,0.00
2024-02-19T06:55:04.001Z,0.10
2024-02-19T06:57:53.415Z,0.20
2024-02-19T07:00:41.698Z,0.10
2024-02-19T07:03:30.002Z,0.10
2024-02-19T07:06:17.848Z,0.10
2024-02-19T07:09:06.122Z,0.10
2024-02-19T07:11:53.969Z,0.20
2024-02-19T07:14:43.317Z,0.20
2024-02-19T07:17:31.612Z,0.10
2024-02-19T07:20:20.791Z,0.20
2024-02-19T07:23:08.579Z,0.20
2024-02-19T07:25:57.135Z,0.20
2024-02-19T07:28:45.063Z,0.10
2024-02-19T07:31:34.175Z,0.10
2024-02-19T07:34:22.064Z,0.07
2024-02-19T07:37:09.926Z,0.03
2024-02-19T07:39:57.720Z,0.07
2024-02-19T07:42:45.934Z,0.30
2024-02-19T07:45:34.882Z,0.10
2024-02-19T07:48:25.124Z,0.17
2024-02-19T07:51:15.931Z,0.30
2024-02-19T07:54:03.743Z,0.30
2024-02-19T07:56:52.955Z,0.50
2024-02-19T07:59:40.738Z,0.60
2024-02-19T08:02:29.154Z,0.60
2024-02-19T08:05:18.782Z,0.40
2024-02-19T08:08:06.925Z,0.63
2024-02-19T08:10:54.656Z,0.60
2024-02-19T08:13:43.197Z,0.60
2024-02-19T08:16:31.101Z,0.50
2024-02-19T08:19:19.114Z,0.60
2024-02-19T08:22:10.310Z,0.30
2024-02-19T08:25:00.632Z,0.80
2024-02-19T08:27:48.441Z,0.73
2024-02-19T08:30:36.210Z,0.60
2024-02-19T08:33:25.235Z,0.70
2024-02-19T08:36:12.966Z,0.70
2024-02-19T08:39:02.789Z,1.07
2024-02-19T08:41:50.732Z,1.30
2024-02-19T08:44:39.024Z,0.67
2024-02-19T08:47:26.865Z,1.20
2024-02-19T08:50:15.729Z,1.77
2024-02-19T08:53:03.988Z,1.33
2024-02-19T08:55:53.046Z,1.80
2024-02-19T08:58:42.490Z,1.70
2024-02-19T09:01:30.262Z,1.13
2024-02-19T09:04:18.172Z,1.40
2024-02-19T09:07:06.090Z,0.60
2024-02-19T09:09:53.959Z,0.77
2024-02-19T09:12:43.438Z,0.47
2024-02-19T09:15:31.213Z,0.53
2024-02-19T09:18:19.051Z,0.20
2024-02-19T09:21:07.913Z,0.70
2024-02-19T09:23:56.104Z,0.97
2024-02-19T09:26:44.629Z,0.60
2024-02-19T09:29:36.343Z,0.30
2024-02-19T09:32:24.877Z,0.60
2024-02-19T09:35:13.025Z,0.60
2024-02-19T09:38:01.765Z,0.50
2024-02-19T09:40:51.029Z,0.50
2024-02-19T09:43:38.908Z,0.50
2024-02-19T09:46:28.408Z,0.80
2024-02-19T09:49:16.317Z,0.50
2024-02-19T09:52:04.510Z,0.70
2024-02-19T09:54:52.570Z,0.90
2024-02-19T09:57:41.073Z,1.07
2024-02-19T10:00:28.901Z,0.90
2024-02-19T10:03:19.537Z,0.90
2024-02-19T10:06:08.335Z,1.10
2024-02-19T10:08:56.271Z,1.07
2024-02-19T10:11:44.857Z,0.80
2024-02-19T10:14:33.113Z,0.70
2024-02-19T10:17:25.079Z,0.90
2024-02-19T10:20:14.926Z,0.93
2024-02-19T10:23:02.652Z,0.87
2024-02-19T10:25:50.500Z,0.73
2024-02-19T10:28:33.088Z,0.80
2024-02-19T10:31:00.543Z,0.80
2024-02-19T10:33:28.512Z,0.70
2024-02-19T10:35:59.566Z,0.70
2024-02-19T10:38:28.291Z,0.70
2024-02-19T10:40:55.963Z,0.37
2024-02-19T10:43:24.953Z,0.70
2024-02-19T10:45:53.833Z,0.57
2024-02-19T10:48:22.461Z,0.50
2024-02-19T10:50:50.169Z,0.53
2024-02-19T10:53:20.917Z,0.60
2024-02-19T10:55:55.742Z,0.50
2024-02-19T10:58:26.664Z,0.60
2024-02-19T11:00:59.305Z,0.90
2024-02-19T11:03:26.961Z,0.60
2024-02-19T11:05:54.521Z,0.67
2024-02-19T11:08:24.137Z,0.67
2024-02-19T11:10:55.393Z,0.90
2024-02-19T11:13:26.727Z,0.60
2024-02-19T11:15:54.493Z,0.80
2024-02-19T11:18:23.730Z,0.73
2024-02-19T11:20:51.795Z,0.70
2024-02-19T11:23:20.140Z,0.80
2024-02-19T11:25:51.545Z,0.90
2024-02-19T11:28:19.977Z,0.50
2024-02-19T11:30:59.767Z,0.60
2024-02-19T11:33:27.583Z,0.40
2024-02-19T11:35:57.794Z,0.40
2024-02-19T11:38:26.589Z,0.30
2024-02-19T11:40:55.775Z,0.63
2024-02-19T11:43:23.714Z,0.60
2024-02-19T11:45:52.802Z,0.67
2024-02-19T11:48:21.624Z,0.60
2024-02-19T11:50:49.221Z,0.50
2024-02-19T11:53:16.688Z,0.53
2024-02-19T11:55:44.163Z,0.60
2024-02-19T11:58:13.396Z,0.70
2024-02-19T12:00:42.605Z,0.50
2024-02-19T12:03:14.719Z,0.60
2024-02-19T12:05:42.426Z,0.70
2024-02-19T12:08:10.131Z,0.57
2024-02-19T12:10:37.651Z,0.67
2024-02-19T12:13:07.079Z,0.30
2024-02-19T12:15:36.520Z,0.63
2024-02-19T12:18:04.533Z,0.70
2024-02-19T12:20:32.733Z,0.50
2024-02-19T12:23:00.188Z,0.70
2024-02-19T12:25:28.520Z,0.60
2024-02-19T12:27:56.089Z,0.60
2024-02-19T12:30:26.110Z,0.80
2024-02-19T12:32:56.349Z,0.80
2024-02-19T12:35:24.245Z,0.70
2024-02-19T12:37:51.877Z,0.70
2024-02-19T12:40:20.429Z,0.60
2024-02-19T12:42:48.008Z,0.57
2024-02-19T12:45:15.535Z,0.60
2024-02-19T12:47:43.091Z,0.60
2024-02-19T12:50:13.700Z,0.70
2024-02-19T12:52:42.020Z,0.60
2024-02-19T12:55:14.975Z,0.60
2024-02-19T12:57:44.200Z,0.80
2024-02-19T13:00:13.485Z,0.87
2024-02-19T13:02:41.026Z,0.80
2024-02-19T13:05:08.920Z,0.90
2024-02-19T13:07:40.194Z,1.00
2024-02-19T13:10:10.502Z,1.10
2024-02-19T13:12:39.107Z,0.70
2024-02-19T13:15:06.888Z,0.80
2024-02-19T13:17:40.112Z,0.80
2024-02-19T13:20:14.312Z,0.60
2024-02-19T13:22:43.189Z,0.73
2024-02-19T13:25:11.233Z,0.60
2024-02-19T13:27:40.513Z,0.70
2024-02-19T13:30:10.747Z,0.50
2024-02-19T13:32:38.619Z,0.43
2024-02-19T13:35:11.282Z,0.50
2024-02-19T13:37:40.191Z,0.40
2024-02-19T13:40:10.837Z,0.57
2024-02-19T13:42:41.275Z,0.60
2024-02-19T13:45:11.055Z,0.57
2024-02-19T13:47:40.514Z,0.57
2024-02-19T13:50:09.445Z,0.60
2024-02-19T13:52:38.134Z,0.40
2024-02-19T13:55:07.700Z,0.50
2024-02-19T13:57:37.036Z,0.30
2024-02-19T14:00:06.288Z,0.20
2024-02-19T14:02:33.744Z,0.33
2024-02-19T14:05:04.120Z,0.40
2024-02-19T14:07:32.763Z,0.40
2024-02-19T14:10:00.267Z,0.37
2024-02-19T14:12:29.404Z,0.30
2024-02-19T14:14:58.202Z,0.50
2024-02-19T14:17:25.689Z,0.43
2024-02-19T14:19:54.287Z,0.40
2024-02-19T14:22:24.117Z,0.30
2024-02-19T14:24:52.711Z,0.30
2024-02-19T14:27:21.879Z,0.30
2024-02-19T14:30:11.460Z,0.30
2024-02-19T14:32:59.214Z,0.40
2024-02-19T14:35:51.020Z,0.40
2024-02-19T14:38:41.493Z,0.30
2024-02-19T14:41:29.392Z,0.50
2024-02-19T14:43:57.629Z,0.50
2024-02-19T14:46:26.909Z,0.33
2024-02-19T14:48:55.923Z,0.50
2024-02-19T14:51:26.014Z,0.50
2024-02-19T14:53:55.260Z,0.40
2024-02-19T14:56:22.982Z,0.30
2024-02-19T14:58:50.463Z,0.50
2024-02-19T15:01:18.015Z,0.50
2024-02-19T15:03:47.117Z,0.50
2024-02-19T15:06:14.780Z,0.40
2024-02-19T15:08:42.299Z,0.40
2024-02-19T15:11:09.724Z,0.57
2024-02-19T15:13:37.418Z,0.43
2024-02-19T15:16:07.230Z,0.50
2024-02-19T15:18:34.928Z,0.60
2024-02-19T15:21:06.612Z,0.70
2024-02-19T15:23:41.222Z,0.50
2024-02-19T15:26:11.043Z,0.40
2024-02-19T15:28:39.004Z,0.30
2024-02-19T15:31:07.983Z,0.20
2024-02-19T15:33:35.446Z,0.40
2024-02-19T15:36:04.531Z,0.27
2024-02-19T15:38:32.220Z,0.30
2024-02-19T15:40:59.703Z,0.27
2024-02-19T15:43:28.599Z,0.40
2024-02-19T15:45:56.405Z,0.40
2024-02-19T15:48:24.040Z,0.30
2024-02-19T15:50:51.961Z,0.30
2024-02-19T15:53:28.465Z,0.20
2024-02-19T15:55:59.062Z,0.30
2024-02-19T15:58:26.602Z,0.20
2024-02-19T16:00:54.238Z,0.23
2024-02-19T16:03:22.331Z,0.30
2024-02-19T16:05:57.661Z,0.27
2024-02-19T16:08:42.461Z,0.43
2024-02-19T16:11:11.104Z,0.20
2024-02-19T16:13:40.302Z,0.30
2024-02-19T16:16:09.147Z,0.20
2024-02-19T16:18:43.195Z,0.60
2024-02-19T16:21:10.656Z,0.40
2024-02-19T16:23:38.277Z,0.40
2024-02-19T16:26:08.901Z,0.33
2024-02-19T16:28:36.652Z,0.40
2024-02-19T16:31:04.793Z,0.43
2024-02-19T16:33:32.466Z,0.30
2024-02-19T16:36:00.128Z,0.27
2024-02-19T16:38:29.086Z,0.37
2024-02-19T16:40:57.341Z,0.50
2024-02-19T16:43:27.498Z,0.40
2024-02-19T16:45:56.049Z,0.20
2024-02-19T16:48:25.882Z,0.30
2024-02-19T16:50:53.365Z,0.40
2024-02-19T16:53:22.101Z,0.40
2024-02-19T16:55:50.316Z,0.30
2024-02-19T16:58:22.112Z,0.30
2024-02-19T17:00:55.087Z,0.40
2024-02-19T17:03:23.791Z,0.50
2024-02-19T17:05:51.908Z,0.47
2024-02-19T17:08:19.595Z,0.30
2024-02-19T17:10:48.170Z,0.40
2024-02-19T17:13:15.975Z,0.50
2024-02-19T17:15:43.588Z,0.60
2024-02-19T17:18:12.438Z,0.60
2024-02-19T17:20:39.950Z,0.40
2024-02-19T17:23:14.238Z,0.50
2024-02-19T17:25:42.853Z,0.40
2024-02-19T17:28:10.607Z,0.50
2024-02-19T17:30:38.412Z,0.50
2024-02-19T17:33:05.932Z,0.50
2024-02-19T17:35:37.777Z,0.57
2024-02-19T17:38:09.245Z,0.50
2024-02-19T17:40:37.918Z,0.57
2024-02-19T17:43:05.960Z,0.40
2024-02-19T17:45:34.349Z,0.50
2024-02-19T17:48:03.046Z,0.63
2024-02-19T17:50:30.926Z,0.80
2024-02-19T17:52:59.794Z,0.60
2024-02-19T17:55:27.863Z,0.77
2024-02-19T17:57:56.370Z,0.87
2024-02-19T18:00:25.081Z,0.80
2024-02-19T18:02:53.011Z,0.60
2024-02-19T18:05:20.481Z,0.90
2024-02-19T18:07:48.033Z,0.70
2024-02-19T18:10:16.879Z,0.60
2024-02-19T18:12:49.801Z,0.60
2024-02-19T18:15:22.466Z,0.70
2024-02-19T18:17:51.589Z,0.50
2024-02-19T18:20:19.591Z,0.70
2024-02-19T18:22:51.674Z,0.60
2024-02-19T18:25:20.910Z,0.80
2024-02-19T18:27:54.329Z,0.70
2024-02-19T18:30:22.914Z,0.60
2024-02-19T18:32:51.320Z,0.87
2024-02-19T18:35:19.301Z,0.53
2024-02-19T18:37:47.137Z,0.70
2024-02-19T18:40:19.736Z,0.77
2024-02-19T18:42:49.703Z,0.60
2024-02-19T18:45:17.273Z,0.50
2024-02-19T18:47:47.096Z,0.77
2024-02-19T18:50:15.694Z,0.67
2024-02-19T18:52:43.347Z,0.60
2024-02-19T18:55:12.148Z,0.70
2024-02-19T18:57:39.759Z,0.80
2024-02-19T19:00:10.797Z,0.80
2024-02-19T19:02:39.519Z,1.00
2024-02-19T19:05:07.766Z,1.07
2024-02-19T19:07:35.435Z,0.90
2024-02-19T19:10:04.445Z,1.00
2024-02-19T19:12:33.124Z,1.20
2024-02-19T19:14:59.644Z,1.20
2024-02-19T19:17:28.975Z,0.97
2024-02-19T19:19:56.786Z,0.80
2024-02-19T19:22:24.358Z,1.00
2024-02-19T19:24:53.789Z,1.00
2024-02-19T19:27:22.825Z,0.90
2024-02-19T19:29:51.558Z,0.90
2024-02-19T19:32:25.884Z,0.90
2024-02-19T19:34:56.009Z,1.00
2024-02-19T19:37:25.867Z,1.13
2024-02-19T19:39:53.407Z,1.10
2024-02-19T19:42:22.966Z,1.10
2024-02-19T19:44:52.180Z,1.00
2024-02-19T19:47:19.670Z,0.90
2024-02-19T19:49:47.108Z,1.30
2024-02-19T19:52:17.542Z,0.93
2024-02-19T19:54:47.274Z,1.30
2024-02-19T19:57:14.773Z,1.23
2024-02-19T19:59:45.274Z,1.00
2024-02-19T20:02:13.039Z,1.50
2024-02-19T20:04:41.174Z,1.60
2024-02-19T20:07:09.384Z,1.47
2024-02-19T20:09:38.910Z,1.50
2024-02-19T20:12:08.581Z,1.40
2024-02-19T20:14:37.406Z,1.30
2024-02-19T20:17:06.012Z,1.30
2024-02-19T20:19:33.954Z,1.20
2024-02-19T20:22:01.582Z,1.23
2024-02-19T20:24:31.334Z,1.50
2024-02-19T20:27:02.050Z,1.27
2024-02-19T20:29:38.441Z,1.47
2024-02-19T20:32:09.494Z,1.23
2024-02-19T20:34:38.397Z,1.20
2024-02-19T20:37:06.497Z,1.33
2024-02-19T20:39:34.684Z,1.50
2024-02-19T20:42:03.597Z,1.67
2024-02-19T20:44:34.212Z,1.60
2024-02-19T20:47:07.756Z,1.17
2024-02-19T20:49:35.299Z,1.70
2024-02-19T20:52:06.255Z,1.40
2024-02-19T20:54:35.945Z,1.50
2024-02-19T20:57:07.806Z,1.50
2024-02-19T20:59:35.646Z,1.70
2024-02-19T21:02:05.833Z,1.50
2024-02-19T21:04:36.327Z,1.53
2024-02-19T21:07:06.216Z,1.53
2024-02-19T21:09:38.007Z,1.40
2024-02-19T21:12:05.723Z,1.50
2024-02-19T21:14:35.744Z,1.67
2024-02-19T21:17:05.428Z,1.67
2024-02-19T21:20:00.903Z,1.40
2024-02-19T21:22:29.303Z,1.90
2024-02-19T21:24:57.739Z,1.83
2024-02-19T21:27:27.509Z,1.60
2024-02-19T21:29:56.548Z,1.90
2024-02-19T21:32:26.370Z,2.00
2024-02-19T21:34:54.437Z,1.97
2024-02-19T21:37:25.896Z,2.07
2024-02-19T21:39:54.896Z,2.20
2024-02-19T21:42:26.268Z,1.93
2024-02-19T21:44:57.154Z,2.30
2024-02-19T21:47:29.208Z,2.50
2024-02-19T21:49:56.674Z,2.40
2024-02-19T21:52:24.311Z,2.20
2024-02-19T21:54:51.768Z,2.30
2024-02-19T21:57:20.610Z,2.30
2024-02-19T21:59:57.499Z,2.50
2024-02-19T22:02:26.998Z,2.57
2024-02-19T22:05:04.869Z,2.30
2024-02-19T22:07:33.560Z,2.50
2024-02-19T22:10:02.814Z,2.73
2024-02-19T22:12:31.257Z,2.13
2024-02-19T22:15:00.654Z,2.20
2024-02-19T22:17:30.140Z,2.57
2024-02-19T22:19:57.969Z,2.47
2024-02-19T22:22:25.624Z,2.37
2024-02-19T22:24:53.281Z,2.43
2024-02-19T22:27:21.398Z,2.33
2024-02-19T22:29:51.991Z,2.43
2024-02-19T22:32:21.846Z,2.40
2024-02-19T22:34:50.461Z,2.47
2024-02-19T22:37:18.868Z,2.60
2024-02-19T22:39:46.802Z,2.50
2024-02-19T22:42:14.749Z,2.67
2024-02-19T22:44:45.242Z,2.40
2024-02-19T22:47:13.896Z,2.10
2024-02-19T22:49:43.696Z,2.30
2024-02-19T22:52:11.281Z,2.20
2024-02-19T22:54:38.851Z,2.63
2024-02-19T22:57:06.499Z,2.20
2024-02-19T22:59:34.092Z,2.07
2024-02-19T23:02:03.040Z,2.00
2024-02-19T23:04:31.463Z,2.43
2024-02-19T23:07:00.407Z,2.50
2024-02-19T23:09:28.258Z,2.47
2024-02-19T23:11:56.020Z,2.03
2024-02-19T23:14:23.423Z,2.10
2024-02-19T23:16:50.862Z,2.43
2024-02-19T23:19:21.176Z,2.20
2024-02-19T23:21:49.123Z,2.00
2024-02-19T23:24:17.861Z,2.40
2024-02-19T23:26:45.267Z,2.40
2024-02-19T23:29:12.668Z,2.07
2024-02-19T23:31:40.142Z,2.03
2024-02-19T23:34:09.162Z,2.63
2024-02-19T23:36:40.949Z,2.87
2024-02-19T23:39:08.912Z,2.40
2024-02-19T23:41:37.758Z,2.60
2024-02-19T23:44:05.350Z,2.30
2024-02-19T23:46:36.952Z,2.27
2024-02-19T23:49:04.672Z,1.80
2024-02-19T23:51:34.918Z,2.27
2024-02-19T23:54:04.962Z,2.07
2024-02-19T23:56:32.568Z,2.13
2024-02-19T23:59:01.376Z,2.37
